createdAt,value
2018-09-12T00:01:28.534Z,99434.80
2018-09-12T00:04:33.521Z,99435.17
2018-09-12T00:07:38.439Z,99432.38
2018-09-12T00:10:43.365Z,99429.68
2018-09-12T00:13:48.424Z,99424.50
2018-09-12T00:16:53.364Z,99425.55
2018-09-12T00:19:58.285Z,99426.34
2018-09-12T00:23:03.217Z,99424.32
2018-09-12T00:26:08.129Z,99424.27
2018-09-12T00:29:13.053Z,99419.56
2018-09-12T00:32:17.981Z,99416.46
2018-09-12T00:35:22.934Z,99409.00
2018-09-12T00:38:27.872Z,99404.42
2018-09-12T00:41:32.833Z,99404.70
2018-09-12T00:44:37.788Z,99402.20
2018-09-12T00:47:42.688Z,99409.95
2018-09-12T00:50:47.651Z,99407.77
2018-09-12T00:53:52.658Z,99406.02
2018-09-12T00:56:57.593Z,99405.47
2018-09-12T01:00:02.537Z,99401.72
2018-09-12T01:03:07.453Z,99399.55
2018-09-12T01:06:12.449Z,99395.48
2018-09-12T01:09:17.367Z,99390.84
2018-09-12T01:12:22.369Z,99393.42
2018-09-12T01:15:27.281Z,99390.84
2018-09-12T01:18:32.217Z,99386.05
2018-09-12T01:21:37.153Z,99383.59
2018-09-12T01:24:42.100Z,99380.22
2018-09-12T01:27:51.616Z,99375.52
2018-09-12T01:30:56.538Z,99377.48
2018-09-12T01:34:01.453Z,99379.84
2018-09-12T01:37:06.361Z,99384.61
2018-09-12T01:40:11.291Z,99377.26
2018-09-12T01:43:16.229Z,99378.82
2018-09-12T01:46:21.161Z,99372.91
2018-09-12T01:49:26.124Z,99372.34
2018-09-12T01:52:31.106Z,99371.00
2018-09-12T01:55:36.038Z,99372.03
2018-09-12T01:58:40.937Z,99368.75
2018-09-12T02:01:45.863Z,99366.66
2018-09-12T02:04:50.816Z,99364.48
2018-09-12T02:07:55.761Z,99366.93
2018-09-12T02:11:00.682Z,99363.47
2018-09-12T02:14:05.637Z,99362.72
2018-09-12T02:17:10.574Z,99361.22
2018-09-12T02:20:15.507Z,99356.17
2018-09-12T02:23:20.460Z,99361.06
2018-09-12T02:26:25.450Z,99356.93
2018-09-12T02:29:30.380Z,99357.45
2018-09-12T02:32:35.310Z,99352.57
2018-09-12T02:35:45.814Z,99355.08
2018-09-12T02:38:50.732Z,99356.36
2018-09-12T02:41:55.653Z,99353.93
2018-09-12T02:45:00.638Z,99347.09
2018-09-12T02:48:05.777Z,99344.86
2018-09-12T02:51:10.713Z,99343.75
2018-09-12T02:54:15.666Z,99338.17
2018-09-12T02:57:20.622Z,99339.98
2018-09-12T03:00:25.593Z,99339.86
2018-09-12T03:03:30.577Z,99333.64
2018-09-12T03:06:35.497Z,99332.75
2018-09-12T03:09:40.426Z,99324.17
2018-09-12T03:12:45.361Z,99329.08
2018-09-12T03:15:50.279Z,99329.66
2018-09-12T03:18:55.200Z,99325.05
2018-09-12T03:22:00.164Z,99320.65
2018-09-12T03:25:05.455Z,99321.66
2018-09-12T03:28:10.378Z,99317.85
2018-09-12T03:31:15.288Z,99320.69
2018-09-12T03:34:20.214Z,99318.92
2018-09-12T03:37:25.154Z,99319.72
2018-09-12T03:40:30.090Z,99318.16
2018-09-12T03:43:35.046Z,99319.24
2018-09-12T03:46:40.710Z,99317.91
2018-09-12T03:49:45.632Z,99316.61
2018-09-12T03:52:50.550Z,99318.07
2018-09-12T03:55:55.472Z,99316.70
2018-09-12T03:59:00.396Z,99314.25
2018-09-12T04:02:05.341Z,99311.73
2018-09-12T04:05:10.295Z,99314.41
2018-09-12T04:08:15.237Z,99309.25
2018-09-12T04:11:20.145Z,99312.09
2018-09-12T04:14:25.137Z,99312.58
2018-09-12T04:17:32.596Z,99304.45
2018-09-12T04:20:37.521Z,99309.20
2018-09-12T04:23:42.492Z,99306.05
2018-09-12T04:26:47.414Z,99310.61
2018-09-12T04:29:52.776Z,99307.67
2018-09-12T04:32:57.673Z,99313.45
2018-09-12T04:36:02.598Z,99313.17
2018-09-12T04:39:09.001Z,99301.28
2018-09-12T04:42:14.066Z,99300.56
2018-09-12T04:45:18.993Z,99303.16
2018-09-12T04:48:23.920Z,99293.70
2018-09-12T04:51:29.201Z,99308.13
2018-09-12T04:54:34.148Z,99305.52
2018-09-12T04:57:39.357Z,99309.05
2018-09-12T05:00:44.297Z,99305.45
2018-09-12T05:03:49.245Z,99308.73
2018-09-12T05:06:54.190Z,99307.84
2018-09-12T05:09:59.133Z,99313.13
2018-09-12T05:13:04.162Z,99306.14
2018-09-12T05:16:09.174Z,99298.51
2018-09-12T05:19:14.160Z,99298.76
2018-09-12T05:22:19.145Z,99299.32
2018-09-12T05:25:24.133Z,99301.90
2018-09-12T05:28:29.256Z,99299.76
2018-09-12T05:31:34.193Z,99293.50
2018-09-12T05:34:39.226Z,99293.04
2018-09-12T05:37:44.254Z,99290.93
2018-09-12T05:40:49.298Z,99286.27
2018-09-12T05:43:54.400Z,99288.48
2018-09-12T05:46:59.398Z,99286.73
2018-09-12T05:50:04.731Z,99290.81
2018-09-12T05:53:09.701Z,99285.78
2018-09-12T05:56:14.708Z,99292.10
2018-09-12T05:59:19.695Z,99289.09
2018-09-12T06:02:24.827Z,99288.91
2018-09-12T06:05:29.807Z,99291.09
2018-09-12T06:08:34.784Z,99286.88
2018-09-12T06:11:39.769Z,99285.02
2018-09-12T06:14:44.762Z,99281.54
2018-09-12T06:17:49.957Z,99282.28
2018-09-12T06:20:54.963Z,99283.55
2018-09-12T06:23:59.924Z,99285.20
2018-09-12T06:27:04.860Z,99284.59
2018-09-12T06:30:09.870Z,99286.76
2018-09-12T06:33:14.801Z,99280.41
2018-09-12T06:36:19.724Z,99276.74
2018-09-12T06:39:24.877Z,99271.69
2018-09-12T06:42:29.818Z,99264.89
2018-09-12T06:45:34.764Z,99267.73
2018-09-12T06:48:39.778Z,99268.65
2018-09-12T06:51:44.692Z,99263.61
2018-09-12T06:54:50.196Z,99260.16
2018-09-12T06:57:55.144Z,99264.94
2018-09-12T07:01:00.190Z,99264.05
2018-09-12T07:04:05.386Z,99266.61
2018-09-12T07:07:10.368Z,99253.95
2018-09-12T07:10:15.476Z,99249.83
2018-09-12T07:13:20.462Z,99251.29
2018-09-12T07:16:25.445Z,99248.76
2018-09-12T07:19:30.408Z,99247.58
2018-09-12T07:22:35.345Z,99242.40
2018-09-12T07:25:40.335Z,99238.30
2018-09-12T07:28:45.273Z,99241.54
2018-09-12T07:31:50.217Z,99242.67
2018-09-12T07:34:55.159Z,99245.38
2018-09-12T07:38:00.121Z,99236.80
2018-09-12T07:41:05.109Z,99230.95
2018-09-12T07:44:10.091Z,99223.41
2018-09-12T07:47:15.116Z,99230.85
2018-09-12T07:50:20.054Z,99232.40
2018-09-12T07:53:25.067Z,99228.32
2018-09-12T07:56:30.129Z,99228.95
2018-09-12T07:59:34.946Z,99221.75
2018-09-12T08:02:39.941Z,99221.91
2018-09-12T08:05:44.884Z,99220.38
2018-09-12T08:08:49.848Z,99219.33
2018-09-12T08:11:54.820Z,99221.52
2018-09-12T08:14:59.807Z,99207.16
2018-09-12T08:18:04.938Z,99203.48
2018-09-12T08:21:10.685Z,99197.15
2018-09-12T08:24:15.657Z,99199.20
2018-09-12T08:27:20.638Z,99206.86
2018-09-12T08:30:25.640Z,99199.58
2018-09-12T08:33:30.626Z,99199.23
2018-09-12T08:36:35.684Z,99198.88
2018-09-12T08:39:40.649Z,99198.18
2018-09-12T08:42:45.643Z,99200.34
2018-09-12T08:45:50.593Z,99196.72
2018-09-12T08:48:55.538Z,99200.91
2018-09-12T08:52:00.535Z,99193.61
2018-09-12T08:55:05.869Z,99198.17
2018-09-12T08:58:10.818Z,99188.55
2018-09-12T09:01:15.839Z,99188.62
2018-09-12T09:04:20.697Z,99194.36
2018-09-12T09:07:25.635Z,99193.08
2018-09-12T09:10:30.637Z,99199.31
2018-09-12T09:13:35.496Z,99196.67
2018-09-12T09:16:40.436Z,99191.39
2018-09-12T09:19:45.389Z,99202.46
2018-09-12T09:22:50.300Z,99194.53
2018-09-12T09:25:55.224Z,99204.27
2018-09-12T09:29:00.163Z,99202.50
2018-09-12T09:32:05.250Z,99200.27
2018-09-12T09:35:10.309Z,99194.52
2018-09-12T09:38:15.173Z,99205.57
2018-09-12T09:41:20.117Z,99196.70
2018-09-12T09:44:25.045Z,99197.60
2018-09-12T09:47:29.998Z,99202.49
2018-09-12T09:50:34.916Z,99194.09
2018-09-12T09:53:39.873Z,99194.10
2018-09-12T09:56:44.837Z,99193.20
2018-09-12T09:59:49.977Z,99183.02
2018-09-12T10:03:00.828Z,99190.55
2018-09-12T10:06:11.463Z,99176.83
2018-09-12T10:09:22.165Z,99187.85
2018-09-12T10:12:27.097Z,99179.94
2018-09-12T10:15:32.026Z,99185.69
2018-09-12T10:18:36.957Z,99186.08
2018-09-12T10:21:41.873Z,99182.02
2018-09-12T10:24:46.792Z,99181.52
2018-09-12T10:27:51.732Z,99183.22
2018-09-12T10:30:56.686Z,99174.36
2018-09-12T10:34:01.606Z,99166.73
2018-09-12T10:37:06.521Z,99166.82
2018-09-12T10:40:11.513Z,99175.77
2018-09-12T10:43:16.413Z,99168.20
2018-09-12T10:46:21.434Z,99160.77
2018-09-12T10:49:26.345Z,99153.45
2018-09-12T10:52:31.262Z,99170.64
2018-09-12T10:55:36.183Z,99150.74
2018-09-12T10:58:41.118Z,99155.58
2018-09-12T11:01:46.039Z,99154.22
2018-09-12T11:04:50.958Z,99155.08
2018-09-12T11:07:55.916Z,99145.30
2018-09-12T11:11:00.862Z,99148.00
2018-09-12T11:14:06.117Z,99133.49
2018-09-12T11:17:11.034Z,99134.36
2018-09-12T11:20:15.949Z,99135.58
2018-09-12T11:23:20.925Z,99138.67
2018-09-12T11:26:25.870Z,99130.27
2018-09-12T11:29:30.771Z,99127.58
2018-09-12T11:32:35.727Z,99135.52
2018-09-12T11:35:40.625Z,99131.52
2018-09-12T11:38:45.541Z,99117.45
2018-09-12T11:41:50.466Z,99129.44
2018-09-12T11:44:55.395Z,99124.98
2018-09-12T11:48:00.297Z,99130.39
2018-09-12T11:51:05.503Z,99124.23
2018-09-12T11:54:10.559Z,99111.84
2018-09-12T11:57:15.609Z,99110.99
2018-09-12T12:00:20.641Z,99104.33
2018-09-12T12:03:25.669Z,99109.14
2018-09-12T12:06:30.775Z,99102.51
2018-09-12T12:09:35.929Z,99106.48
2018-09-12T12:12:40.941Z,99104.67
2018-09-12T12:15:46.927Z,99087.91
2018-09-12T12:18:52.509Z,99089.66
2018-09-12T12:21:57.794Z,99093.22
2018-09-12T12:25:02.949Z,99093.73
2018-09-12T12:28:07.961Z,99074.33
2018-09-12T12:31:13.399Z,99079.15
2018-09-12T12:34:18.739Z,99071.21
2018-09-12T12:37:24.277Z,99064.13
2018-09-12T12:40:29.287Z,99068.98
2018-09-12T12:43:34.299Z,99065.00
2018-09-12T12:46:39.374Z,99063.27
2018-09-12T12:49:44.442Z,99061.91
2018-09-12T12:52:49.472Z,99053.98
2018-09-12T12:55:54.773Z,99048.69
2018-09-12T12:58:59.764Z,99053.97
2018-09-12T13:02:05.251Z,99049.99
2018-09-12T13:05:10.336Z,99048.63
2018-09-12T13:08:15.773Z,99041.19
2018-09-12T13:11:21.209Z,99035.86
2018-09-12T13:14:26.204Z,99025.70
2018-09-12T13:17:31.599Z,99027.91
2018-09-12T13:20:36.600Z,99033.17
2018-09-12T13:23:41.548Z,99025.25
2018-09-12T13:26:46.622Z,99019.05
2018-09-12T13:29:51.974Z,99025.25
2018-09-12T13:32:57.173Z,99023.04
2018-09-12T13:36:02.526Z,99023.48
2018-09-12T13:39:13.477Z,99012.85
2018-09-12T13:42:18.709Z,98997.86
2018-09-12T13:45:24.020Z,99009.37
2018-09-12T13:48:29.021Z,99013.36
2018-09-12T13:51:34.381Z,99003.20
2018-09-12T13:54:39.331Z,99007.15
2018-09-12T13:57:44.700Z,98995.23
2018-09-12T14:00:50.066Z,98994.80
2018-09-12T14:03:55.180Z,99004.06
2018-09-12T14:07:00.091Z,99000.52
2018-09-12T14:10:05.297Z,98998.79
2018-09-12T14:13:10.221Z,98994.80
2018-09-12T14:16:15.136Z,99001.01
2018-09-12T14:19:20.150Z,98992.17
2018-09-12T14:22:25.040Z,98994.36
2018-09-12T14:25:29.976Z,98993.92
2018-09-12T14:28:34.902Z,98998.36
2018-09-12T14:31:39.820Z,98982.02
2018-09-12T14:34:44.765Z,98972.75
2018-09-12T14:37:49.697Z,98989.95
2018-09-12T14:40:54.626Z,98985.08
2018-09-12T14:43:59.560Z,98983.77
2018-09-12T14:47:04.705Z,98982.45
2018-09-12T14:50:09.645Z,98987.73
2018-09-12T14:53:14.578Z,98985.53
2018-09-12T14:56:19.533Z,98974.94
2018-09-12T14:59:25.587Z,98964.37
2018-09-12T15:02:30.523Z,98971.43
2018-09-12T15:05:35.441Z,98970.55
2018-09-12T15:08:40.414Z,98970.09
2018-09-12T15:11:45.384Z,98968.76
2018-09-12T15:14:50.322Z,98962.97
2018-09-12T15:17:55.278Z,98962.51
2018-09-12T15:21:00.233Z,98969.55
2018-09-12T15:24:05.393Z,98968.68
2018-09-12T15:27:10.363Z,98972.67
2018-09-12T15:30:15.350Z,98959.40
2018-09-12T15:33:20.316Z,98958.52
2018-09-12T15:36:25.247Z,98960.73
2018-09-12T15:39:30.222Z,98959.42
2018-09-12T15:42:35.386Z,98966.02
2018-09-12T15:45:40.363Z,98966.03
2018-09-12T15:48:45.309Z,98965.13
2018-09-12T15:51:50.251Z,98961.14
2018-09-12T15:54:55.226Z,98965.54
2018-09-12T15:58:00.596Z,98958.44
2018-09-12T16:01:05.622Z,98958.44
2018-09-12T16:04:10.870Z,98961.91
2018-09-12T16:07:16.392Z,98954.39
2018-09-12T16:10:21.869Z,98948.17
2018-09-12T16:13:27.296Z,98948.56
2018-09-12T16:16:32.801Z,98950.70
2018-09-12T16:19:38.110Z,98953.41
2018-09-12T16:22:43.185Z,98950.26
2018-09-12T16:25:48.172Z,98952.41
2018-09-12T16:28:53.586Z,98948.84
2018-09-12T16:31:58.627Z,98943.92
2018-09-12T16:35:03.689Z,98935.89
2018-09-12T16:38:08.713Z,98935.44
2018-09-12T16:41:13.690Z,98933.66
2018-09-12T16:44:20.405Z,98931.42
2018-09-12T16:47:25.431Z,98934.78
2018-09-12T16:50:30.869Z,98934.36
2018-09-12T16:53:36.159Z,98937.02
2018-09-12T16:56:41.302Z,98935.19
2018-09-12T16:59:46.461Z,98944.71
2018-09-12T17:02:51.887Z,98941.81
2018-09-12T17:05:57.139Z,98940.89
2018-09-12T17:09:02.360Z,98939.91
2018-09-12T17:12:07.841Z,98944.53
2018-09-12T17:15:12.785Z,98938.62
2018-09-12T17:18:17.997Z,98942.88
2018-09-12T17:21:22.937Z,98941.86
2018-09-12T17:24:27.869Z,98939.95
2018-09-12T17:27:33.022Z,98942.77
2018-09-12T17:30:38.681Z,98941.62
2018-09-12T17:33:43.837Z,98940.86
2018-09-12T17:36:48.790Z,98936.63
2018-09-12T17:39:53.851Z,98935.44
2018-09-12T17:42:58.850Z,98938.23
2018-09-12T17:46:04.133Z,98939.25
2018-09-12T17:49:09.566Z,98941.13
2018-09-12T17:52:14.936Z,98944.73
2018-09-12T17:55:20.268Z,98949.22
2018-09-12T17:58:25.218Z,98947.52
2018-09-12T18:01:30.355Z,98954.55
2018-09-12T18:04:35.325Z,98961.80
2018-09-12T18:07:40.313Z,98954.88
2018-09-12T18:10:45.509Z,98965.48
2018-09-12T18:13:51.841Z,98971.27
2018-09-12T18:16:57.044Z,98977.37
2018-09-12T18:20:02.001Z,98979.48
2018-09-12T18:23:07.382Z,98982.67
2018-09-12T18:26:12.351Z,98988.55
2018-09-12T18:29:18.094Z,98992.53
2018-09-12T18:32:23.057Z,98995.83
2018-09-12T18:35:28.301Z,98996.81
2018-09-12T18:38:33.418Z,98996.53
2018-09-12T18:41:38.404Z,98998.42
2018-09-12T18:44:43.363Z,99004.75
2018-09-12T18:47:48.749Z,98996.98
2018-09-12T18:50:54.044Z,98999.12
2018-09-12T18:53:59.329Z,99002.77
2018-09-12T18:57:04.730Z,99006.83
2018-09-12T19:00:09.953Z,99006.84
2018-09-12T19:03:14.904Z,99006.55
2018-09-12T19:06:19.914Z,99006.27
2018-09-12T19:09:25.456Z,99015.64
2018-09-12T19:12:30.626Z,99015.23
2018-09-12T19:15:36.153Z,99023.13
2018-09-12T19:18:41.774Z,99043.00
2018-09-12T19:21:46.673Z,99045.12
2018-09-12T19:24:51.661Z,99044.57
2018-09-12T19:27:56.725Z,99045.67
2018-09-12T19:31:01.760Z,99051.31
2018-09-12T19:34:06.951Z,99056.40
2018-09-12T19:37:12.166Z,99060.47
2018-09-12T19:40:17.800Z,99066.86
2018-09-12T19:43:22.896Z,99063.61
2018-09-12T19:46:27.828Z,99072.11
2018-09-12T19:49:32.767Z,99074.72
2018-09-12T19:52:37.693Z,99079.83
2018-09-12T19:55:42.641Z,99089.91
2018-09-12T19:58:47.592Z,99090.82
2018-09-12T20:01:52.524Z,99085.89
2018-09-12T20:04:58.406Z,99087.56
2018-09-12T20:08:03.373Z,99089.70
2018-09-12T20:11:08.336Z,99093.62
2018-09-12T20:14:13.351Z,99096.77
2018-09-12T20:17:18.279Z,99104.39
2018-09-12T20:20:23.236Z,99102.87
2018-09-12T20:23:28.241Z,99104.59
2018-09-12T20:26:33.189Z,99110.42
2018-09-12T20:29:38.129Z,99108.45
2018-09-12T20:32:43.040Z,99111.38
2018-09-12T20:35:48.004Z,99117.02
2018-09-12T20:38:52.916Z,99112.68
2018-09-12T20:41:57.879Z,99105.31
2018-09-12T20:45:02.823Z,99109.67
2018-09-12T20:48:07.962Z,99111.98
2018-09-12T20:51:12.893Z,99107.89
2018-09-12T20:54:17.876Z,99108.34
2018-09-12T20:57:22.836Z,99108.69
2018-09-12T21:00:27.787Z,99109.94
2018-09-12T21:03:32.729Z,99108.95
2018-09-12T21:06:37.664Z,99104.16
2018-09-12T21:13:00.244Z,99100.89
2018-09-12T21:16:05.231Z,99102.27
2018-09-12T21:19:10.178Z,99103.82
2018-09-12T21:22:15.120Z,99110.76
2018-09-12T21:25:20.062Z,99112.95
2018-09-12T21:28:25.005Z,99110.68
2018-09-12T21:31:29.957Z,99109.59
2018-09-12T21:34:34.881Z,99113.56
2018-09-12T21:37:39.940Z,99113.66
2018-09-12T21:40:44.966Z,99119.26
2018-09-12T21:43:49.921Z,99121.27
2018-09-12T21:46:54.869Z,99123.15
2018-09-12T21:49:59.810Z,99118.66
2018-09-12T21:53:04.782Z,99128.91
2018-09-12T21:56:09.962Z,99135.97
2018-09-12T22:02:55.325Z,99148.50
2018-09-12T22:06:00.264Z,99144.38
2018-09-12T22:09:08.933Z,99142.73
2018-09-12T22:12:13.911Z,99150.55
2018-09-12T22:15:18.843Z,99147.19
2018-09-12T22:18:23.781Z,99156.38
2018-09-12T22:21:28.797Z,99157.58
2018-09-12T22:24:33.745Z,99150.91
2018-09-12T22:27:38.671Z,99140.66
2018-09-12T22:30:43.818Z,99149.22
2018-09-12T22:33:48.758Z,99137.76
2018-09-12T22:36:53.676Z,99146.09
2018-09-12T22:39:58.601Z,99149.23
2018-09-12T22:43:03.524Z,99145.20
2018-09-12T22:46:08.432Z,99145.44
2018-09-12T22:49:13.354Z,99147.59
2018-09-12T22:52:18.272Z,99147.70
2018-09-12T22:55:23.191Z,99145.37
2018-09-12T22:58:28.535Z,99142.87
2018-09-12T23:01:33.479Z,99141.11
2018-09-12T23:04:38.425Z,99141.30
2018-09-12T23:07:43.344Z,99136.93
2018-09-12T23:10:48.362Z,99134.98
2018-09-12T23:13:53.322Z,99130.67
2018-09-12T23:16:58.258Z,99129.97
2018-09-12T23:20:03.211Z,99129.18
2018-09-12T23:23:08.162Z,99123.66
2018-09-12T23:26:13.087Z,99123.66
2018-09-12T23:29:18.035Z,99118.70
2018-09-12T23:32:22.965Z,99118.31
2018-09-12T23:35:27.904Z,99119.77
2018-09-12T23:38:32.840Z,99115.25
2018-09-12T23:41:37.820Z,99108.25
2018-09-12T23:44:42.743Z,99117.52
2018-09-12T23:47:47.676Z,99112.09
2018-09-12T23:50:52.612Z,99114.22
2018-09-12T23:53:57.538Z,99107.48
2018-09-12T23:57:02.435Z,99115.75
